Time;durP1;ratioP1;P1;durP2;ratioP2;P2;SDS_P1;SDS_P2;PMS_P1;PMS_P2;Temp;Humidity;BMP_temperature;BMP_pressure;BME280_temperature;BME280_humidity;BME280_pressure;Samples;Min_cycle;Max_cycle;Signal;HPM_P1;HPM_P2
2023/10/06 00:00:42;;;;;;;8.50;4.97;;;27.40;47.30;;;;;;4935386;29;20162;-74
2023/10/06 00:03:13;;;;;;;9.77;5.00;;;27.10;47.30;;;;;;4935605;29;20138;-75
2023/10/06 00:05:40;;;;;;;13.68;4.70;;;27.30;47.30;;;;;;4935081;29;20039;-75
2023/10/06 00:08:17;;;;;;;9.77;4.57;;;27.30;47.40;;;;;;4935148;29;20075;-75
2023/10/06 00:10:50;;;;;;;8.77;4.65;;;27.30;47.30;;;;;;4934375;29;20119;-75
2023/10/06 00:13:24;;;;;;;8.18;3.95;;;27.30;47.30;;;;;;4933923;29;20373;-75
2023/10/06 00:15:50;;;;;;;11.70;4.80;;;27.30;47.40;;;;;;4935529;29;20048;-75
2023/10/06 00:18:16;;;;;;;12.57;5.20;;;27.40;47.40;;;;;;4934579;29;20024;-75
2023/10/06 00:20:49;;;;;;;14.88;4.93;;;27.40;47.40;;;;;;4935321;29;20050;-74
2023/10/06 00:23:23;;;;;;;8.38;4.18;;;27.50;47.40;;;;;;4935200;29;20027;-75
2023/10/06 00:25:53;;;;;;;5.95;3.97;;;27.40;47.40;;;;;;4935350;29;20038;-75
2023/10/06 00:28:19;;;;;;;10.80;4.72;;;27.40;47.40;;;;;;4933714;29;20205;-74
2023/10/06 00:30:56;;;;;;;9.38;4.38;;;27.40;47.40;;;;;;4938404;29;20123;-75
2023/10/06 00:33:27;;;;;;;7.28;4.00;;;27.30;47.40;;;;;;4933331;29;20048;-75
2023/10/06 00:35:54;;;;;;;9.95;4.45;;;27.30;47.40;;;;;;4934072;29;20404;-75
2023/10/06 00:38:21;;;;;;;12.88;5.03;;;27.30;47.40;;;;;;4934048;29;20031;-75
2023/10/06 00:40:55;;;;;;;10.05;4.13;;;27.20;47.40;;;;;;4934071;29;20035;-75
2023/10/06 00:43:39;;;;;;;8.50;4.28;;;27.30;47.40;;;;;;4935095;29;20078;-75
2023/10/06 00:46:07;;;;;;;6.18;4.00;;;27.10;47.40;;;;;;4933923;29;20547;-75
2023/10/06 00:48:40;;;;;;;7.30;4.93;;;27.20;47.50;;;;;;4931321;29;20186;-76
2023/10/06 00:51:19;;;;;;;10.15;4.80;;;27.40;47.50;;;;;;4932156;29;20063;-75
2023/10/06 00:53:46;;;;;;;11.05;4.38;;;27.10;47.50;;;;;;4931030;29;20059;-75
2023/10/06 00:56:15;;;;;;;8.15;4.50;;;27.20;47.60;;;;;;4932081;29;20074;-75
2023/10/06 00:58:42;;;;;;;17.27;4.55;;;27.00;47.60;;;;;;4915771;29;20150;-75
2023/10/06 01:01:13;;;;;;;9.32;4.70;;;27.20;47.60;;;;;;4916210;29;20065;-76
2023/10/06 01:03:42;;;;;;;12.07;4.65;;;27.20;47.60;;;;;;4916228;29;20048;-75
2023/10/06 01:06:22;;;;;;;9.25;4.53;;;27.20;47.60;;;;;;4932083;29;20094;-74
2023/10/06 01:08:55;;;;;;;8.77;3.92;;;27.10;47.70;;;;;;4915346;29;20043;-75
2023/10/06 01:11:26;;;;;;;10.95;4.30;;;27.20;47.70;;;;;;4932129;29;20035;-75
2023/10/06 01:13:55;;;;;;;7.05;3.85;;;27.20;47.70;;;;;;4931704;29;20051;-75
2023/10/06 01:16:26;;;;;;;8.73;4.82;;;27.20;47.70;;;;;;4931100;29;20461;-74
2023/10/06 01:18:52;;;;;;;10.68;4.50;;;27.20;47.70;;;;;;4915234;29;20055;-75
2023/10/06 01:21:28;;;;;;;8.40;4.38;;;27.20;47.70;;;;;;4931618;29;20032;-75
2023/10/06 01:23:58;;;;;;;6.22;4.22;;;27.20;47.70;;;;;;4931452;29;20063;-75
2023/10/06 01:26:25;;;;;;;9.55;4.10;;;27.10;47.80;;;;;;4931704;29;20035;-75
2023/10/06 01:28:51;;;;;;;10.60;4.35;;;27.20;47.80;;;;;;4931732;29;20051;-75
2023/10/06 01:31:20;;;;;;;8.00;4.25;;;27.30;47.80;;;;;;4932807;29;20035;-75
2023/10/06 01:33:46;;;;;;;10.43;4.32;;;27.20;47.80;;;;;;4932416;29;20048;-74
2023/10/06 01:36:22;;;;;;;10.02;4.20;;;27.20;47.80;;;;;;4934173;29;20586;-75
2023/10/06 01:38:48;;;;;;;15.85;4.63;;;27.10;47.80;;;;;;4933201;29;20046;-75
2023/10/06 01:41:15;;;;;;;7.47;4.13;;;27.10;47.80;;;;;;4917018;29;20040;-75
2023/10/06 01:43:41;;;;;;;8.90;3.88;;;27.20;47.80;;;;;;4932793;29;20527;-74
2023/10/06 01:46:12;;;;;;;11.32;4.60;;;27.20;47.80;;;;;;4932365;29;20123;-75
2023/10/06 01:48:39;;;;;;;8.52;4.30;;;27.00;47.80;;;;;;4916443;29;20445;-75
2023/10/06 01:51:14;;;;;;;10.20;4.18;;;27.10;47.80;;;;;;4932803;29;20070;-74
2023/10/06 01:53:41;;;;;;;8.40;4.45;;;27.10;47.90;;;;;;4933601;29;20043;-75
2023/10/06 01:56:08;;;;;;;8.68;4.28;;;27.10;47.90;;;;;;4932403;29;20087;-75
2023/10/06 01:58:35;;;;;;;6.97;3.90;;;27.00;47.90;;;;;;4932326;29;20040;-74
2023/10/06 02:01:05;;;;;;;13.85;4.53;;;27.00;47.90;;;;;;4933156;29;20050;-75
2023/10/06 02:03:37;;;;;;;10.20;5.18;;;27.00;48.00;;;;;;4932182;29;20067;-75
2023/10/06 02:06:04;;;;;;;8.55;3.88;;;27.00;48.00;;;;;;4932695;29;20031;-74
2023/10/06 02:08:31;;;;;;;7.75;4.57;;;27.00;48.00;;;;;;4931787;29;20032;-74
2023/10/06 02:11:01;;;;;;;8.93;3.90;;;26.90;47.50;;;;;;4934035;29;20058;-75
2023/10/06 02:13:29;;;;;;;7.75;4.07;;;27.10;48.10;;;;;;4933617;29;20065;-74
2023/10/06 02:15:58;;;;;;;9.18;4.38;;;27.00;48.10;;;;;;4932662;29;20050;-74
2023/10/06 02:18:35;;;;;;;11.30;3.97;;;27.10;48.10;;;;;;4917295;29;20063;-74
2023/10/06 02:21:09;;;;;;;6.85;3.80;;;27.00;48.10;;;;;;4934266;29;20098;-75
2023/10/06 02:23:38;;;;;;;5.97;3.72;;;27.10;48.20;;;;;;4932038;29;20027;-75
2023/10/06 02:26:12;;;;;;;7.07;4.13;;;27.10;48.20;;;;;;4932571;29;20027;-74
2023/10/06 02:28:43;;;;;;;9.75;4.30;;;27.00;48.20;;;;;;4935474;29;20046;-74
2023/10/06 02:31:11;;;;;;;11.00;4.13;;;27.00;48.20;;;;;;4935863;29;20032;-75
2023/10/06 02:33:39;;;;;;;8.93;3.90;;;27.10;48.20;;;;;;4937174;29;20047;-74
2023/10/06 02:36:21;;;;;;;10.13;4.05;;;26.90;47.60;;;;;;4937410;29;20051;-75
2023/10/06 02:38:48;;;;;;;9.55;3.88;;;27.10;48.20;;;;;;4917800;29;20051;-75
2023/10/06 02:41:18;;;;;;;11.73;4.45;;;27.00;48.20;;;;;;4918945;29;20424;-74
2023/10/06 02:43:49;;;;;;;7.75;3.65;;;27.00;48.20;;;;;;4934608;29;20040;-75
2023/10/06 02:46:20;;;;;;;6.18;3.30;;;26.90;47.60;;;;;;4915495;29;20078;-75
2023/10/06 02:48:50;;;;;;;6.07;3.35;;;26.90;47.70;;;;;;4914707;29;20040;-75
2023/10/06 02:51:32;;;;;;;8.85;4.10;;;26.90;47.60;;;;;;4899406;29;20086;-75
2023/10/06 02:56:43;;;;;;;11.02;4.55;;;27.00;48.20;;;;;;4915378;29;20044;-74
2023/10/06 02:59:22;;;;;;;9.07;4.15;;;26.80;47.70;;;;;;4914501;29;20489;-74
2023/10/06 03:02:06;;;;;;;13.27;4.85;;;26.90;47.60;;;;;;4915039;29;20179;-75
2023/10/06 03:04:36;;;;;;;13.88;4.95;;;26.90;47.70;;;;;;4914856;29;20060;-74
2023/10/06 03:07:05;;;;;;;9.38;4.80;;;26.80;47.80;;;;;;4899522;29;20051;-75
2023/10/06 03:09:45;;;;;;;10.50;4.65;;;27.00;48.40;;;;;;4906005;29;20051;-75
2023/10/06 03:12:15;;;;;;;11.00;4.90;;;26.90;47.80;;;;;;4934166;29;20539;-75
2023/10/06 03:14:42;;;;;;;9.50;4.65;;;26.90;47.90;;;;;;4917886;29;20110;-75
2023/10/06 03:17:12;;;;;;;16.05;4.70;;;26.90;47.90;;;;;;4917570;29;20052;-75
2023/10/06 03:19:44;;;;;;;8.88;4.10;;;26.80;47.90;;;;;;4917654;29;20415;-75
2023/10/06 03:22:13;;;;;;;13.68;4.68;;;26.90;48.00;;;;;;4917582;29;20179;-74
2023/10/06 03:24:58;;;;;;;10.00;5.13;;;27.00;48.60;;;;;;4897330;29;20048;-75
2023/10/06 03:27:26;;;;;;;13.27;4.75;;;26.80;48.00;;;;;;4898929;29;20048;-75
2023/10/06 03:29:56;;;;;;;7.97;4.72;;;26.90;48.00;;;;;;4914406;29;20051;-74
2023/10/06 03:32:32;;;;;;;10.95;4.25;;;26.90;48.10;;;;;;4913910;29;20802;-74
2023/10/06 03:35:12;;;;;;;11.00;4.07;;;26.90;48.00;;;;;;4913211;29;20052;-75
2023/10/06 03:37:56;;;;;;;11.15;4.90;;;27.00;48.60;;;;;;4914145;29;20063;-74
2023/10/06 03:40:43;;;;;;;13.27;4.53;;;26.90;48.00;;;;;;4881258;29;20052;-75
2023/10/06 03:43:12;;;;;;;12.32;5.57;;;27.10;48.60;;;;;;4914653;29;20472;-74
2023/10/06 03:45:40;;;;;;;10.25;4.13;;;26.90;48.00;;;;;;4895193;29;20597;-75
2023/10/06 03:48:12;;;;;;;10.20;4.60;;;26.90;48.10;;;;;;4900762;29;20051;-75
2023/10/06 03:50:43;;;;;;;12.07;4.35;;;26.70;48.00;;;;;;4879708;29;20136;-75
2023/10/06 03:53:11;;;;;;;10.55;3.92;;;26.80;48.00;;;;;;4887066;29;20077;-76
2023/10/06 03:55:46;;;;;;;6.70;4.22;;;26.70;48.10;;;;;;4913922;29;20047;-74
2023/10/06 03:58:14;;;;;;;7.72;4.25;;;26.80;47.90;;;;;;4935735;29;20166;-74
2023/10/06 04:00:47;;;;;;;8.73;3.97;;;26.80;48.00;;;;;;4935556;29;20035;-74
2023/10/06 04:03:17;;;;;;;8.10;4.95;;;26.60;48.10;;;;;;4935060;29;20491;-74
2023/10/06 04:05:50;;;;;;;8.75;4.70;;;26.80;48.20;;;;;;4930182;29;20154;-73
2023/10/06 04:08:23;;;;;;;10.35;5.05;;;26.60;48.20;;;;;;4937167;29;20118;-75
2023/10/06 04:10:57;;;;;;;8.30;4.05;;;26.70;48.40;;;;;;4935163;29;20046;-72
2023/10/06 04:13:23;;;;;;;7.53;4.10;;;26.80;48.60;;;;;;4935165;29;20448;-74
2023/10/06 04:15:50;;;;;;;11.98;4.28;;;26.70;48.70;;;;;;4934897;29;20036;-73
2023/10/06 04:18:18;;;;;;;6.88;4.32;;;26.70;48.70;;;;;;4935199;29;20046;-75
2023/10/06 04:20:45;;;;;;;7.40;3.92;;;26.70;48.80;;;;;;4935223;29;20380;-74
2023/10/06 04:23:12;;;;;;;10.30;4.97;;;26.80;48.90;;;;;;4935310;29;20051;-74
2023/10/06 04:25:39;;;;;;;10.38;5.53;;;26.90;49.00;;;;;;4935164;29;20048;-74
2023/10/06 04:28:16;;;;;;;8.05;4.40;;;26.80;49.00;;;;;;4933360;29;20448;-75
2023/10/06 04:30:46;;;;;;;12.90;5.13;;;26.80;49.10;;;;;;4932389;29;20036;-74
2023/10/06 04:33:16;;;;;;;15.77;6.07;;;26.80;49.10;;;;;;4931245;29;20067;-75
2023/10/06 04:35:55;;;;;;;12.57;5.45;;;26.80;49.00;;;;;;4934623;29;20047;-74
2023/10/06 04:38:23;;;;;;;16.75;6.35;;;26.70;49.00;;;;;;4934697;29;20036;-73
2023/10/06 04:40:49;;;;;;;10.98;5.35;;;26.80;49.20;;;;;;4932870;29;20448;-74
2023/10/06 04:43:17;;;;;;;17.40;6.65;;;26.80;49.10;;;;;;4934383;29;20020;-75
2023/10/06 04:45:44;;;;;;;18.38;8.00;;;26.70;48.80;;;;;;4934806;29;20196;-75
2023/10/06 04:48:12;;;;;;;10.40;5.82;;;26.80;48.70;;;;;;4933092;29;20122;-75
2023/10/06 04:50:38;;;;;;;16.35;5.95;;;26.70;48.70;;;;;;4933184;29;20036;-74
2023/10/06 04:53:06;;;;;;;18.58;6.80;;;26.70;48.60;;;;;;4933225;29;20034;-75
2023/10/06 04:55:37;;;;;;;11.00;5.65;;;26.80;48.40;;;;;;4932585;29;20127;-74
2023/10/06 04:58:14;;;;;;;15.05;5.07;;;26.70;48.40;;;;;;4934277;29;20032;-73
2023/10/06 05:00:41;;;;;;;12.98;6.43;;;26.70;48.60;;;;;;4931964;29;20059;-74
2023/10/06 05:03:10;;;;;;;14.55;5.60;;;26.60;48.80;;;;;;4934470;29;20118;-74
2023/10/06 05:05:40;;;;;;;10.30;6.22;;;26.80;48.90;;;;;;4934967;29;20115;-76
2023/10/06 05:08:09;;;;;;;16.67;6.20;;;26.60;49.00;;;;;;4935016;29;20360;-74
2023/10/06 05:10:39;;;;;;;16.23;6.28;;;26.60;49.10;;;;;;4934599;29;20031;-74
2023/10/06 05:13:06;;;;;;;24.95;9.45;;;26.60;49.10;;;;;;4933346;29;20035;-74
2023/10/06 05:15:34;;;;;;;21.40;8.65;;;26.70;49.10;;;;;;4932967;29;20115;-75
2023/10/06 05:18:03;;;;;;;27.10;9.30;;;26.60;49.10;;;;;;4933359;29;20079;-74
2023/10/06 05:20:33;;;;;;;19.10;8.00;;;26.70;49.20;;;;;;4934656;29;20124;-75
2023/10/06 05:23:09;;;;;;;17.35;7.53;;;26.70;49.20;;;;;;4934567;29;20039;-75
2023/10/06 05:25:39;;;;;;;20.45;9.13;;;26.70;49.20;;;;;;4934455;29;20043;-75
2023/10/06 05:28:10;;;;;;;27.65;9.07;;;26.70;49.20;;;;;;4934373;29;20035;-75
2023/10/06 05:30:37;;;;;;;20.63;7.75;;;26.70;49.20;;;;;;4934256;29;20036;-74
2023/10/06 05:33:04;;;;;;;21.48;8.82;;;26.60;49.20;;;;;;4934256;29;20119;-75
2023/10/06 05:35:41;;;;;;;25.55;8.30;;;26.80;49.20;;;;;;4933116;29;21054;-75
2023/10/06 05:38:13;;;;;;;14.90;7.35;;;26.70;49.10;;;;;;4934329;29;20119;-75
2023/10/06 05:40:41;;;;;;;13.60;7.50;;;26.60;49.10;;;;;;4933818;29;20043;-75
2023/10/06 05:43:16;;;;;;;24.15;9.02;;;26.60;49.20;;;;;;4933723;29;20031;-75
2023/10/06 05:45:43;;;;;;;25.25;8.18;;;26.60;49.10;;;;;;4932398;29;20048;-75
2023/10/06 05:48:15;;;;;;;13.43;8.40;;;26.60;49.10;;;;;;4932938;29;20031;-75
2023/10/06 05:50:43;;;;;;;14.95;7.85;;;26.60;49.10;;;;;;4933880;29;20043;-75
2023/10/06 05:53:12;;;;;;;15.70;7.53;;;26.50;49.10;;;;;;4934017;29;20039;-75
2023/10/06 05:55:41;;;;;;;14.82;7.97;;;26.50;49.20;;;;;;4933864;29;20058;-75
2023/10/06 05:58:19;;;;;;;18.30;7.72;;;26.70;49.20;;;;;;4933994;29;20043;-74
2023/10/06 06:00:55;;;;;;;15.15;7.05;;;26.60;49.30;;;;;;4893493;29;20131;-75
2023/10/06 06:03:23;;;;;;;16.40;7.63;;;26.60;49.30;;;;;;4864937;29;20081;-75
2023/10/06 06:05:53;;;;;;;13.27;6.70;;;26.60;49.30;;;;;;4897974;29;20041;-75
2023/10/06 06:08:22;;;;;;;17.38;7.55;;;26.60;49.40;;;;;;4897666;29;20055;-74
2023/10/06 06:10:48;;;;;;;12.00;6.38;;;26.60;49.40;;;;;;4897219;29;20040;-75
2023/10/06 06:13:15;;;;;;;14.60;6.88;;;26.60;49.40;;;;;;4897643;29;20049;-74
2023/10/06 06:15:41;;;;;;;15.63;6.38;;;26.70;49.30;;;;;;4890551;29;20449;-74
2023/10/06 06:18:08;;;;;;;16.00;6.10;;;26.70;49.30;;;;;;4887955;29;20107;-75
2023/10/06 06:20:38;;;;;;;18.42;7.90;;;26.70;49.30;;;;;;4881547;29;20048;-74
2023/10/06 06:23:08;;;;;;;14.98;6.68;;;26.60;49.30;;;;;;4897079;29;20040;-76
2023/10/06 06:25:41;;;;;;;17.67;6.18;;;26.60;49.20;;;;;;4897204;29;20044;-76
2023/10/06 06:28:08;;;;;;;12.65;6.35;;;26.60;49.20;;;;;;4881506;29;20036;-75
2023/10/06 06:30:37;;;;;;;11.60;5.70;;;26.70;49.20;;;;;;4896799;29;20128;-75
2023/10/06 06:33:08;;;;;;;12.57;6.07;;;26.60;49.20;;;;;;4897390;29;20151;-75
2023/10/06 06:35:35;;;;;;;15.65;6.68;;;26.70;49.20;;;;;;4897101;29;20045;-75
2023/10/06 06:38:04;;;;;;;12.52;6.35;;;26.60;49.10;;;;;;4910890;29;20056;-74
2023/10/06 06:40:31;;;;;;;10.88;6.57;;;26.70;49.20;;;;;;4918348;29;20032;-75
2023/10/06 06:42:59;;;;;;;10.63;5.47;;;26.50;49.20;;;;;;4916634;29;20134;-75
2023/10/06 06:45:28;;;;;;;12.40;6.25;;;26.70;49.10;;;;;;4926185;29;20042;-75
2023/10/06 06:47:55;;;;;;;14.35;6.45;;;26.60;49.10;;;;;;4937436;29;20032;-75
2023/10/06 06:50:21;;;;;;;11.18;6.05;;;26.60;49.20;;;;;;4937098;29;20429;-75
2023/10/06 06:52:51;;;;;;;16.65;6.40;;;26.70;49.20;;;;;;4937309;29;20063;-75
2023/10/06 06:55:18;;;;;;;13.60;6.10;;;26.50;49.20;;;;;;4935739;29;20028;-75
2023/10/06 06:57:45;;;;;;;19.67;6.88;;;26.60;49.30;;;;;;4935715;29;20087;-75
2023/10/06 07:00:21;;;;;;;12.75;5.90;;;26.50;49.20;;;;;;4935683;29;20031;-75
2023/10/06 07:02:52;;;;;;;11.73;6.15;;;26.50;49.30;;;;;;4937055;29;20028;-75
2023/10/06 07:05:21;;;;;;;11.55;6.22;;;26.60;49.30;;;;;;4936797;29;20028;-75
2023/10/06 07:07:50;;;;;;;14.18;6.00;;;26.70;49.30;;;;;;4936559;29;20046;-75
2023/10/06 07:10:20;;;;;;;11.27;5.25;;;26.60;49.30;;;;;;4935418;29;20035;-76
2023/10/06 07:12:49;;;;;;;10.48;5.40;;;26.70;49.20;;;;;;4936944;29;20034;-75
2023/10/06 07:15:17;;;;;;;8.35;4.75;;;26.60;49.30;;;;;;4935111;29;20074;-75
2023/10/06 07:17:45;;;;;;;17.45;6.70;;;26.60;49.30;;;;;;4936957;29;20039;-76
2023/10/06 07:20:16;;;;;;;13.23;5.80;;;26.60;49.20;;;;;;4936611;29;20051;-76
2023/10/06 07:22:46;;;;;;;11.77;4.85;;;26.60;49.20;;;;;;4936986;29;20035;-75
2023/10/06 07:25:15;;;;;;;11.95;5.18;;;26.60;49.20;;;;;;4936541;29;20099;-75
2023/10/06 07:27:46;;;;;;;19.40;7.28;;;26.50;49.20;;;;;;4935123;29;20046;-75
2023/10/06 07:30:16;;;;;;;8.40;5.30;;;26.60;49.20;;;;;;4936347;29;20044;-74
2023/10/06 07:32:43;;;;;;;15.38;7.00;;;26.60;49.20;;;;;;4936035;29;20074;-75
2023/10/06 07:35:14;;;;;;;13.88;6.55;;;26.50;49.20;;;;;;4935392;29;20039;-75
2023/10/06 07:37:44;;;;;;;12.27;5.85;;;26.50;49.20;;;;;;4936462;29;20322;-75
2023/10/06 07:40:14;;;;;;;13.90;5.43;;;26.60;49.20;;;;;;4936656;29;20042;-75
2023/10/06 07:42:46;;;;;;;12.55;5.45;;;26.50;49.20;;;;;;4935118;29;20040;-75
2023/10/06 07:45:12;;;;;;;13.05;7.07;;;26.40;49.20;;;;;;4914588;29;20063;-75
2023/10/06 07:47:42;;;;;;;14.15;6.30;;;26.50;49.30;;;;;;4914933;29;20048;-75
2023/10/06 07:50:12;;;;;;;14.35;6.43;;;26.50;49.30;;;;;;4914856;29;20047;-75
2023/10/06 07:52:41;;;;;;;11.95;5.28;;;26.40;49.30;;;;;;4914619;29;20047;-76
2023/10/06 07:55:09;;;;;;;8.70;4.47;;;26.60;49.30;;;;;;4914614;29;20115;-75
2023/10/06 07:57:45;;;;;;;17.08;5.82;;;26.60;49.30;;;;;;4914848;29;20055;-74
2023/10/06 08:00:18;;;;;;;16.98;6.85;;;26.60;49.30;;;;;;4914299;29;20123;-75
2023/10/06 08:02:45;;;;;;;7.57;5.03;;;26.60;49.20;;;;;;4914412;29;20055;-76
2023/10/06 08:05:12;;;;;;;10.50;5.90;;;26.60;49.20;;;;;;4914767;29;20044;-75
2023/10/06 08:07:43;;;;;;;11.98;4.70;;;26.60;49.20;;;;;;4914728;29;20128;-75
2023/10/06 08:10:13;;;;;;;10.85;4.80;;;26.70;49.20;;;;;;4914127;29;20122;-75
2023/10/06 08:12:45;;;;;;;11.00;4.88;;;26.60;49.20;;;;;;4914168;29;20032;-75
2023/10/06 08:15:18;;;;;;;10.77;4.88;;;26.60;49.20;;;;;;4915088;29;20052;-75
2023/10/06 08:17:46;;;;;;;10.00;4.25;;;26.50;49.20;;;;;;4934283;29;20043;-75
2023/10/06 08:20:14;;;;;;;8.63;4.55;;;26.50;49.20;;;;;;4934143;29;20031;-75
2023/10/06 08:22:45;;;;;;;9.05;4.90;;;26.60;49.20;;;;;;4934088;29;20408;-76
2023/10/06 08:25:13;;;;;;;15.30;5.65;;;26.50;49.20;;;;;;4933632;29;20074;-75
2023/10/06 08:27:41;;;;;;;10.23;5.95;;;26.50;49.20;;;;;;4935394;29;20043;-75
2023/10/06 08:30:19;;;;;;;12.50;6.00;;;26.50;49.20;;;;;;4933723;29;20047;-75
2023/10/06 08:32:52;;;;;;;9.35;5.32;;;26.60;49.20;;;;;;4935077;29;20079;-75
2023/10/06 08:35:18;;;;;;;9.20;5.10;;;26.40;49.20;;;;;;4897889;29;20187;-75
2023/10/06 08:37:47;;;;;;;10.18;4.72;;;26.40;49.20;;;;;;4913125;29;20651;-74
2023/10/06 08:40:19;;;;;;;14.68;5.63;;;26.50;49.30;;;;;;4913405;29;20056;-76
2023/10/06 08:42:51;;;;;;;10.85;3.90;;;26.50;49.30;;;;;;4897921;29;20362;-75
2023/10/06 08:45:27;;;;;;;11.15;5.13;;;26.50;49.30;;;;;;4894396;29;20131;-75
2023/10/06 08:48:02;;;;;;;8.88;4.20;;;26.50;49.30;;;;;;4894842;29;20040;-72
2023/10/06 08:50:30;;;;;;;10.43;4.07;;;26.50;49.30;;;;;;4878931;29;20168;-73
2023/10/06 08:52:57;;;;;;;8.90;5.00;;;26.40;49.30;;;;;;4912624;29;20221;-76
2023/10/06 08:55:27;;;;;;;10.35;4.13;;;26.50;49.30;;;;;;4897672;29;20052;-75
2023/10/06 08:57:55;;;;;;;9.05;4.38;;;26.50;49.30;;;;;;4897377;29;20040;-75
2023/10/06 09:00:24;;;;;;;11.27;4.40;;;26.60;49.30;;;;;;4872219;29;20139;-75
2023/10/06 09:02:53;;;;;;;9.15;5.15;;;26.50;49.30;;;;;;4894352;29;20657;-76
2023/10/06 09:05:19;;;;;;;11.10;5.68;;;26.50;49.30;;;;;;4882252;29;20072;-75
2023/10/06 09:07:59;;;;;;;14.65;5.55;;;26.50;49.30;;;;;;4933359;29;20071;-75
2023/10/06 09:10:27;;;;;;;9.75;4.35;;;26.60;49.30;;;;;;4934750;29;20032;-75
2023/10/06 09:13:08;;;;;;;15.35;5.30;;;26.60;49.20;;;;;;4934079;29;20032;-74
2023/10/06 09:15:35;;;;;;;13.55;5.55;;;26.60;49.20;;;;;;4934595;29;20098;-76
2023/10/06 09:18:18;;;;;;;10.15;5.10;;;26.50;49.30;;;;;;4934425;29;20043;-75
2023/10/06 09:20:45;;;;;;;5.43;3.33;;;26.50;49.30;;;;;;4934201;29;20136;-76
2023/10/06 09:23:14;;;;;;;11.02;5.93;;;26.50;49.30;;;;;;4933917;29;20478;-75
2023/10/06 09:25:47;;;;;;;11.93;4.30;;;26.50;49.30;;;;;;4934018;29;20094;-76
2023/10/06 09:28:17;;;;;;;6.72;3.90;;;26.40;49.20;;;;;;4934391;29;20468;-75
2023/10/06 09:30:50;;;;;;;8.40;4.50;;;26.40;49.30;;;;;;4933966;29;20472;-75
2023/10/06 09:33:17;;;;;;;9.90;4.43;;;26.50;49.30;;;;;;4933783;29;20055;-76
2023/10/06 09:35:43;;;;;;;10.18;4.75;;;26.40;49.40;;;;;;4932831;29;20035;-75
2023/10/06 09:38:13;;;;;;;9.93;4.47;;;26.40;49.40;;;;;;4933509;29;20046;-75
2023/10/06 09:40:43;;;;;;;10.93;6.00;;;26.40;49.40;;;;;;4932895;29;20031;-75
2023/10/06 09:43:18;;;;;;;7.03;4.50;;;26.50;49.40;;;;;;4933791;29;20040;-75
2023/10/06 09:45:44;;;;;;;7.38;4.15;;;26.50;49.40;;;;;;4932923;29;20063;-75
2023/10/06 09:48:15;;;;;;;6.22;3.35;;;26.50;49.40;;;;;;4933936;29;20031;-75
2023/10/06 09:50:43;;;;;;;5.50;3.22;;;26.50;49.40;;;;;;4933877;29;20075;-75
2023/10/06 09:53:14;;;;;;;5.32;3.00;;;26.50;49.40;;;;;;4934159;29;20071;-75
2023/10/06 09:55:42;;;;;;;11.52;5.45;;;26.50;49.40;;;;;;4933598;29;20122;-76
2023/10/06 09:58:09;;;;;;;6.50;3.47;;;26.40;49.40;;;;;;4933686;29;20110;-75
2023/10/06 10:00:39;;;;;;;8.82;4.70;;;26.60;49.40;;;;;;4933760;29;20032;-75
2023/10/06 10:03:12;;;;;;;10.10;3.88;;;26.70;49.40;;;;;;4932152;29;20039;-75
2023/10/06 10:05:39;;;;;;;9.57;4.55;;;26.40;49.30;;;;;;4933601;29;20043;-76
2023/10/06 10:08:10;;;;;;;6.88;3.72;;;26.50;49.40;;;;;;4933781;29;20039;-75
2023/10/06 10:10:40;;;;;;;8.48;3.63;;;26.40;49.40;;;;;;4933895;29;20031;-75
2023/10/06 10:13:22;;;;;;;8.10;3.45;;;26.50;49.40;;;;;;4933862;29;20039;-75
2023/10/06 10:15:57;;;;;;;12.20;4.88;;;26.60;49.40;;;;;;4933335;29;20124;-75
2023/10/06 10:18:33;;;;;;;5.95;4.00;;;26.50;49.40;;;;;;4932822;29;20039;-75
2023/10/06 10:21:00;;;;;;;7.72;4.70;;;26.40;49.40;;;;;;4933879;29;20039;-75
2023/10/06 10:23:30;;;;;;;5.93;2.90;;;26.50;49.40;;;;;;4934107;29;20039;-75
2023/10/06 10:26:23;;;;;;;7.85;4.35;;;26.50;49.40;;;;;;4933559;29;20127;-76
2023/10/06 10:29:17;;;;;;;4.00;2.58;;;26.40;49.40;;;;;;4933902;29;20032;-75
2023/10/06 10:31:50;;;;;;;9.10;4.22;;;26.50;49.40;;;;;;4933626;29;20055;-75
2023/10/06 10:34:20;;;;;;;8.70;4.40;;;26.50;49.40;;;;;;4933415;29;20047;-75
2023/10/06 10:37:07;;;;;;;7.72;4.40;;;26.40;49.40;;;;;;4933197;29;20112;-75
2023/10/06 10:39:48;;;;;;;9.02;4.43;;;26.30;49.40;;;;;;4932466;29;20035;-75
2023/10/06 10:42:19;;;;;;;8.68;4.13;;;26.40;49.40;;;;;;4933387;29;20032;-75
2023/10/06 10:44:47;;;;;;;5.85;3.22;;;26.40;49.40;;;;;;4885121;29;20048;-75
2023/10/06 10:47:14;;;;;;;4.93;2.35;;;26.40;49.40;;;;;;4874685;29;20563;-75
2023/10/06 10:49:41;;;;;;;7.05;3.72;;;26.40;49.40;;;;;;4877022;29;20064;-73
2023/10/06 10:52:09;;;;;;;5.07;2.10;;;26.60;49.40;;;;;;4877977;29;20033;-75
2023/10/06 10:54:40;;;;;;;7.35;3.28;;;26.40;49.40;;;;;;4896792;29;20056;-75
2023/10/06 10:57:09;;;;;;;5.72;2.97;;;26.40;49.40;;;;;;4894703;29;20067;-76
2023/10/06 11:02:57;;;;;;;16.42;4.43;;;26.50;50.60;;;;;;4895000;29;20047;-77
2023/10/06 11:05:23;;;;;;;8.60;3.60;;;26.60;51.60;;;;;;4850837;29;20828;-77
2023/10/06 11:08:00;;;;;;;5.43;3.38;;;26.80;51.00;;;;;;4858358;29;20063;-78
2023/10/06 11:10:27;;;;;;;7.32;3.40;;;26.70;49.10;;;;;;4858515;29;20128;-76
2023/10/06 11:13:31;;;;;;;9.13;3.30;;;26.70;48.20;;;;;;4858531;29;20526;-78
2023/10/06 11:16:04;;;;;;;3.90;2.97;;;26.70;46.70;;;;;;4809102;29;20448;-78
2023/10/06 11:18:35;;;;;;;;;;;26.80;45.80;;;;;;4823215;29;20043;-78
2023/10/06 11:21:01;;;;;;;4.55;2.70;;;26.70;45.10;;;;;;4817651;29;19981;-78
2023/10/06 11:23:43;;;;;;;6.53;2.30;;;26.70;45.10;;;;;;4818590;29;20516;-77
2023/10/06 11:26:11;;;;;;;7.40;2.42;;;26.70;44.60;;;;;;4804595;29;20125;-74
2023/10/06 11:28:44;;;;;;;6.95;2.35;;;26.70;44.20;;;;;;4816945;29;20694;-73
2023/10/06 11:31:11;;;;;;;4.10;1.90;;;26.90;46.70;;;;;;4815828;29;20073;-76
2023/10/06 11:33:38;;;;;;;2.17;1.48;;;27.00;46.80;;;;;;4811833;29;20047;-76
2023/10/06 11:36:06;;;;;;;3.08;1.40;;;27.20;43.30;;;;;;4812287;29;20121;-74
2023/10/06 11:38:32;;;;;;;2.17;1.60;;;27.10;41.10;;;;;;4809645;29;20051;-75
2023/10/06 11:40:59;;;;;;;1.98;1.33;;;27.00;39.50;;;;;;4812606;29;20133;-76
2023/10/06 11:43:25;;;;;;;7.57;1.88;;;27.00;39.00;;;;;;4835219;29;20058;-76
2023/10/06 11:46:05;;;;;;;3.45;1.58;;;27.00;37.20;;;;;;4848194;29;20044;-75
2023/10/06 11:48:35;;;;;;;4.45;1.95;;;26.90;37.30;;;;;;4910533;29;21006;-76
2023/10/06 11:51:06;;;;;;;4.45;1.58;;;26.80;36.00;;;;;;4919139;29;20811;-75
2023/10/06 11:53:36;;;;;;;1.67;1.35;;;26.80;36.80;;;;;;4932993;29;20051;-74
2023/10/06 11:56:13;;;;;;;4.60;1.67;;;26.80;36.50;;;;;;4933645;29;20122;-78
2023/10/06 11:58:40;;;;;;;4.07;1.80;;;26.90;36.70;;;;;;4933882;29;20581;-76
2023/10/06 12:01:28;;;;;;;3.83;1.60;;;26.80;36.90;;;;;;4933407;29;20118;-78
2023/10/06 12:03:59;;;;;;;4.13;1.88;;;26.90;37.00;;;;;;4933635;29;20031;-77
2023/10/06 12:06:36;;;;;;;6.28;1.50;;;26.80;37.40;;;;;;4933047;29;20019;-78
2023/10/06 12:09:02;;;;;;;3.10;1.42;;;26.80;37.60;;;;;;4934155;29;20100;-75
2023/10/06 12:11:29;;;;;;;3.47;1.40;;;26.80;37.90;;;;;;4934593;29;20031;-79
2023/10/06 12:13:55;;;;;;;3.10;1.40;;;26.80;38.20;;;;;;4933161;29;20115;-76
2023/10/06 12:16:21;;;;;;;2.80;1.40;;;26.70;38.50;;;;;;4896608;29;20563;-79
2023/10/06 12:18:48;;;;;;;2.40;1.58;;;26.60;38.60;;;;;;4896263;29;20048;-76
2023/10/06 12:21:14;;;;;;;2.78;1.52;;;26.80;38.50;;;;;;4912601;29;20175;-75
2023/10/06 12:23:41;;;;;;;6.15;1.75;;;26.70;38.40;;;;;;4912431;29;20481;-80
2023/10/06 12:26:07;;;;;;;3.70;2.15;;;26.80;37.70;;;;;;4902147;29;20127;-78
2023/10/06 12:28:33;;;;;;;4.97;1.17;;;26.70;38.70;;;;;;4913181;29;20147;-77
2023/10/06 12:31:02;;;;;;;1.55;1.20;;;26.70;39.30;;;;;;4911087;29;20080;-75
2023/10/06 12:33:28;;;;;;;2.20;1.33;;;26.70;39.50;;;;;;4912221;29;20040;-77
2023/10/06 12:35:54;;;;;;;2.97;1.40;;;26.60;39.70;;;;;;4912266;29;20087;-76
2023/10/06 12:38:20;;;;;;;1.98;1.50;;;26.70;39.40;;;;;;4912268;29;20044;-77
2023/10/06 12:40:46;;;;;;;4.75;1.67;;;26.60;39.70;;;;;;4912448;29;20040;-76
2023/10/06 12:43:18;;;;;;;1.73;1.10;;;26.50;37.80;;;;;;4912720;29;20115;-79
2023/10/06 12:45:45;;;;;;;2.73;1.70;;;26.70;39.20;;;;;;4896307;29;20055;-80
2023/10/06 12:48:11;;;;;;;4.35;1.35;;;26.60;39.40;;;;;;4911188;29;20047;-79
2023/10/06 12:50:40;;;;;;;6.38;1.50;;;26.60;39.30;;;;;;4934686;29;20127;-78
2023/10/06 12:53:09;;;;;;;6.43;1.73;;;26.60;39.00;;;;;;4933456;29;20039;-74
2023/10/06 12:55:36;;;;;;;2.85;1.35;;;26.60;38.80;;;;;;4932891;29;20059;-75
2023/10/06 12:58:04;;;;;;;3.53;1.40;;;26.70;38.90;;;;;;4917295;29;20047;-75
2023/10/06 13:00:30;;;;;;;4.68;1.33;;;26.70;38.80;;;;;;4933932;29;20047;-77
2023/10/06 13:02:56;;;;;;;2.13;1.38;;;26.60;39.40;;;;;;4934773;29;20035;-73
2023/10/06 13:05:22;;;;;;;4.80;1.80;;;26.70;39.40;;;;;;4934059;29;20027;-75